• Join FlightAware (Why Join?)
  • Login
  • US Flag 
03:21PM EST


 

Airport Tracker/Info


-or-


 

Live Flight TrackerFlight Track Log ✈ N100WX ✈ 08-Oct-2013 ✈ KBED - KEYE

Flight Track Log - Related Links

Times and Time Zones

All times are in EDT time to prevent confusion due to time zone crossing. See the N100WX flight status page for this flight to view local times or setup timezone preferences in your user account.

Time Position Orientation Groundspeed Altitude Reporting Facility
EDT Latitude Longitude Course Direction KTS MPH feet Rate Location/Type
11:41AM 42.4833 -71.2833 360° North 71 82 1,100  Level KA90
11:42AM 42.5333 -71.2833 360° North 203 234 3,100 2,040 Climbing KA90
11:44AM 42.4497 -71.3961 225° Southwest 205 236 8,000 2,220 Climbing Boston Center
11:45AM 42.4317 -71.4611 249° West 205 236 10,100 2,400 Climbing Boston Center
11:46AM 42.4197 -71.5431 259° West 206 237 12,800 2,340 Climbing Boston Center
11:47AM 42.4183 -71.6161 269° West 200 230 14,800 1,260 Climbing Boston Center
11:48AM 42.4189 -71.7089 270° West 228 262 15,500 900 Climbing Boston Center
11:49AM 42.4111 -71.8044 264° West 257 296 16,700 1,260 Climbing Boston Center
11:50AM 42.4011 -71.9086 263° West 274 315 18,000 540 Climbing Boston Center
11:51AM 42.3933 -72.0128 264° West 280 322 17,900  Descending Boston Center
11:52AM 42.3853 -72.1169 264° West 285 328 18,000 240 Climbing Boston Center
11:53AM 42.3772 -72.2153 264° West 272 313 18,500 1,020 Climbing Boston Center
11:54AM 42.3692 -72.3081 263° West 261 300 20,100 1,500 Climbing Boston Center
11:55AM 42.3608 -72.4008 263° West 256 295 21,500 1,020 Climbing Boston Center
11:57AM 42.3419 -72.6031 263° West 268 308 23,300 780 Climbing Boston Center
11:58AM 42.3314 -72.7125 263° West 288 331 24,000 300 Climbing Boston Center
11:59AM 42.3228 -72.8164 264° West 288 331 24,000 300 Level Boston Center
12:00PM 42.3119 -72.9117 261° West 283 326 24,700 960 Climbing Boston Center
12:01PM 42.3011 -72.9958 260° West 273 314 26,000 600 Climbing Boston Center
12:02PM 42.2942 -73.1025 265° West 276 318 26,000 1,200 Level Boston Center
12:03PM 42.2875 -73.2006 265° West 276 318 28,500 1,920 Climbing Boston Center
12:04PM 42.2764 -73.2958 261° West 271 312 29,900 1,500 Climbing Boston Center
12:05PM 42.2714 -73.3883 266° West 265 305 31,500 1,500 Climbing Boston Center
12:06PM 42.2622 -73.4753 262° West 244 281 33,000 1,380 Climbing Boston Center
12:07PM 42.2531 -73.5678 262° West 244 281 34,400 1,380 Climbing Boston Center
12:08PM 42.2461 -73.6433 263° West 226 260 35,800 1,140 Climbing Boston Center
12:09PM 42.2347 -73.7244 259° West 226 260 36,700 840 Climbing Boston Center
12:10PM 42.2275 -73.8028 263° West 226 260 37,500 600 Climbing Boston Center
12:11PM 42.2203 -73.8839 263° West 226 260 38,000 240 Climbing Boston Center
12:12PM 42.2108 -73.9706 262° West 226 260 38,000  Level Boston Center
12:13PM 42.2011 -74.0683 262° West 246 283 38,000  Level Boston Center
12:14PM 42.1892 -74.1717 261° West 264 304 38,000  Level Boston Center
12:15PM 42.1769 -74.2781 261° West 287 330 38,000  Level Boston Center
12:16PM 42.1647 -74.3925 262° West 298 343 38,000  Level Boston Center
12:17PM 42.1503 -74.5094 261° West 298 343 38,000  Level Boston Center
12:18PM 42.1397 -74.6211 263° West 298 343 38,000  Level Boston Center
12:20PM 42.1153 -74.8556 262° West 303 349 38,000  Level New York Center
12:21PM 42.0967 -74.9772 258° West 303 349 38,000  Level New York Center
12:22PM 42.0636 -75.0814 247° West 303 349 38,000  Level New York Center
12:23PM 42.0308 -75.1825 246° West 303 349 38,000  Level New York Center
12:24PM 41.9958 -75.2861 246° West 308 354 38,000  Level New York Center
12:25PM 41.9625 -75.3925 247° West 308 354 38,000  Level New York Center
12:26PM 41.9292 -75.4961 247° West 308 354 38,000  Level New York Center
12:27PM 41.8939 -75.5994 245° Southwest 308 354 38,000  Level New York Center
12:28PM 41.8606 -75.7031 247° West 308 354 38,000  Level New York Center
12:29PM 41.8247 -75.8089 246° West 308 354 38,000  Level New York Center
12:30PM 41.7911 -75.9147 247° West 308 354 38,000  Level New York Center
12:31PM 41.7578 -76.0094 245° Southwest 308 354 38,000  Level New York Center
12:32PM 41.7239 -76.1153 247° West 308 354 38,000  Level New York Center
12:33PM 41.6900 -76.2208 247° West 308 354 38,000  Level New York Center
12:34PM 41.6539 -76.3289 246° West 308 354 38,000  Level New York Center
12:35PM 41.6194 -76.4372 247° West 308 354 38,000  Level New York Center
12:36PM 41.5831 -76.5450 246° West 313 360 38,000  Level New York Center
12:37PM 41.5444 -76.6497 244° Southwest 313 360 38,000  Level New York Center
12:38PM 41.5033 -76.7653 245° Southwest 313 360 38,000  Level New York Center
12:39PM 41.4692 -76.8647 245° Southwest 319 367 38,000  Level New York Center
12:40PM 41.4325 -76.9719 246° West 324 373 38,000  Level New York Center
12:41PM 41.3956 -77.0792 245° Southwest 329 379 38,000  Level New York Center
12:42PM 41.3583 -77.1892 246° West 334 384 38,000  Level New York Center
12:44PM 41.2839 -77.4056 245° Southwest 323 372 38,000  Level Cleveland Center
12:45PM 41.2469 -77.5139 246° West 322 371 38,000  Level Cleveland Center
12:46PM 41.2081 -77.6222 245° Southwest 326 375 38,000  Level Cleveland Center
12:47PM 41.1692 -77.7314 245° Southwest 327 376 38,000  Level Cleveland Center
12:48PM 41.1228 -77.8628 245° Southwest 330 380 38,000  Level Cleveland Center
12:49PM 41.0850 -77.9714 245° Southwest 327 376 38,000  Level Cleveland Center
12:50PM 41.0444 -78.0800 244° Southwest 328 377 38,000  Level Cleveland Center
12:51PM 41.0053 -78.1897 245° Southwest 329 379 38,000  Level Cleveland Center
12:52PM 40.9644 -78.3092 246° West 338 389 38,000  Level Cleveland Center
12:53PM 40.9267 -78.4228 246° West 339 390 38,000  Level Cleveland Center
12:54PM 40.8817 -78.5286 241° Southwest 340 391 38,000  Level Cleveland Center
12:55PM 40.8339 -78.6597 244° Southwest 338 389 38,000  Level Cleveland Center
12:57PM 40.7931 -78.7725 244° Southwest 340 391 38,000  Level Cleveland Center
12:58PM 40.7519 -78.8839 244° Southwest 338 389 38,000  Level Cleveland Center
12:59PM 40.7106 -78.9992 245° Southwest 339 390 38,000  Level Cleveland Center
01:00PM 40.6700 -79.1103 244° Southwest 338 389 38,000  Level Cleveland Center
01:01PM 40.6281 -79.2219 244° Southwest 339 390 38,000  Level Cleveland Center
01:02PM 40.5781 -79.3569 244° Southwest 342 394 38,000  Level Cleveland Center
01:03PM 40.5364 -79.4689 244° Southwest 342 394 38,000  Level Cleveland Center
01:04PM 40.5244 -79.5928 263° West 343 395 38,000  Level Cleveland Center
01:05PM 40.5203 -79.7189 268° West 347 399 38,000  Level Cleveland Center
01:06PM 40.5175 -79.8447 268° West 347 399 38,000  Level Cleveland Center
01:07PM 40.5139 -79.9700 268° West 347 399 38,000  Level Cleveland Center
01:08PM 40.5103 -80.1167 268° West 347 399 38,000  Level Cleveland Center
01:09PM 40.5067 -80.2431 268° West 347 399 38,000  Level Cleveland Center
01:10PM 40.5028 -80.3669 268° West 348 400 38,000  Level Cleveland Center
01:11PM 40.4989 -80.4925 268° West 348 400 38,000  Level Cleveland Center
01:12PM 40.4939 -80.6442 268° West 348 400 38,000  Level Cleveland Center
01:13PM 40.4892 -80.7711 267° West 350 403 38,000  Level Cleveland Center
01:14PM 40.4847 -80.8978 267° West 349 402 38,000  Level Cleveland Center
01:15PM 40.4800 -81.0258 267° West 351 404 38,000  Level Cleveland Center
01:16PM 40.4750 -81.1544 267° West 353 406 38,000  Level Cleveland Center
01:17PM 40.4697 -81.2825 267° West 353 406 38,000  Level Cleveland Center
01:18PM 40.4639 -81.4311 267° West 354 407 38,000  Level Cleveland Center
01:19PM 40.4586 -81.5625 267° West 356 410 38,000  Level Cleveland Center
01:20PM 40.4553 -81.6506 267° West 357 411 38,000  Level Indianapolis Center
01:21PM 40.4497 -81.7803 267° West 353 406 38,000  Level Indianapolis Center
01:22PM 40.4439 -81.9119 267° West 354 407 38,000 -120 Level Indianapolis Center
01:23PM 40.4378 -82.0411 266° West 352 405 37,800 -540 Descending Indianapolis Center
01:24PM 40.4328 -82.1661 267° West 343 395 37,000 -900 Descending Indianapolis Center
01:25PM 40.4194 -82.3031 263° West 324 373 36,000 -840 Descending Indianapolis Center
01:26PM 40.4081 -82.4197 263° West 319 367 35,400 -900 Descending Indianapolis Center
01:27PM 40.3956 -82.5400 262° West 330 380 34,200 -1,260 Descending Indianapolis Center
01:28PM 40.3839 -82.6656 263° West 340 391 32,900 -1,260 Descending Indianapolis Center
01:29PM 40.3808 -82.7919 268° West 343 395 31,600 -1,260 Descending Indianapolis Center
01:30PM 40.3753 -82.9086 266° West 343 395 30,400 -780 Descending Indianapolis Center
01:31PM 40.3681 -83.0586 266° West 345 397 30,000 -240 Descending Indianapolis Center
01:32PM 40.3628 -83.1789 267° West 338 389 30,000  Level Indianapolis Center
01:33PM 40.3572 -83.2969 267° West 330 380 30,000  Level Indianapolis Center
01:34PM 40.3514 -83.4125 266° West 322 371 30,000  Level Indianapolis Center
01:35PM 40.3461 -83.5269 267° West 319 367 30,000  Level Indianapolis Center
01:36PM 40.3400 -83.6419 266° West 319 367 30,000  Level Indianapolis Center
01:37PM 40.3328 -83.7781 266° West 316 364 30,000  Level Indianapolis Center
01:38PM 40.3269 -83.8922 266° West 316 364 30,000  Level Indianapolis Center
01:40PM 40.3217 -84.0064 267° West 316 364 30,000  Level Indianapolis Center
01:41PM 40.3139 -84.1211 265° West 317 365 30,000  Level Indianapolis Center
01:42PM 40.3089 -84.2350 267° West 317 365 30,000 -540 Level Indianapolis Center
01:43PM 40.3003 -84.3744 265° West 321 369 28,900 -1,080 Descending Indianapolis Center
01:44PM 40.2947 -84.4914 266° West 322 371 27,800 -1,140 Descending Indianapolis Center
01:45PM 40.2867 -84.6083 265° West 324 373 26,600 -900 Descending Indianapolis Center
01:46PM 40.2794 -84.7233 265° West 320 368 26,000 -900 Descending Indianapolis Center
01:47PM 40.2728 -84.8392 266° West 322 371 24,800 -1,320 Descending Indianapolis Center
01:48PM 40.2636 -84.9650 265° West 332 382 23,400 -1,620 Descending Indianapolis Center
01:49PM 40.2578 -85.0867 266° West 336 387 21,500 -1,800 Descending Indianapolis Center
01:50PM 40.2486 -85.2042 264° West 328 377 19,700 -1,860 Descending Indianapolis Center
01:51PM 40.2406 -85.3425 266° West 320 368 17,700 -1,980 Descending Indianapolis Center
01:52PM 40.2122 -85.4519 251° West 322 371 15,700 -1,800 Descending Indianapolis Center
01:53PM 40.1697 -85.5486 240° Southwest 309 356 14,000 -1,620 Descending Indianapolis Center
01:54PM 40.1294 -85.6433 241° Southwest 302 348 12,400 -1,620 Descending Indianapolis Center
01:55PM 40.0897 -85.7350 240° Southwest 292 336 10,800 -1,560 Descending Indianapolis Center
01:56PM 40.0517 -85.8247 241° Southwest 286 329 9,200 -1,800 Descending Indianapolis Center
01:57PM 40.0092 -85.9267 241° Southwest 276 318 7,200 -1,800 Descending Indianapolis Center
01:58PM 39.9953 -86.0069 257° West 246 283 5,600 -1,560 Descending Indianapolis Center
01:59PM 39.9886 -86.0861 264° West 231 266 4,100 -1,320 Descending Indianapolis Center
02:00PM 39.9842 -86.1631 266° West 223 257 3,000 -540 Descending Indianapolis Center
02:01PM 39.9575 -86.2156 236° Southwest 202 232 3,000 -300 Level Indianapolis Center
02:02PM 39.9067 -86.2469 205° Southwest 181 208 2,400 -660 Descending Indianapolis Center
02:03PM 39.8753 -86.2669 206° Southwest 150 173 1,700 -660 Descending Indianapolis Center
02:04PM 39.8469 -86.2839 205° Southwest 129 148 1,100 -420 Descending Indianapolis Center
02:05PM 39.8219 -86.2983 204° Southwest 121 139 900 -240 Descending Indianapolis Center
02:07PM 39.8167 -86.2833 North  Level FlightAware Approximate